sensor_id;sensor_type;location;lat;lon;timestamp;P1;durP1;ratioP1;P2;durP2;ratioP2
45548;SDS011;31270;48.328;10.096;2023-09-18T00:02:26;12.20;;;9.30;;
45548;SDS011;31270;48.328;10.096;2023-09-18T00:04:53;12.30;;;8.52;;
45548;SDS011;31270;48.328;10.096;2023-09-18T00:07:18;12.63;;;8.98;;
45548;SDS011;31270;48.328;10.096;2023-09-18T00:09:44;11.25;;;9.50;;
45548;SDS011;31270;48.328;10.096;2023-09-18T00:12:09;15.13;;;9.35;;
45548;SDS011;31270;48.328;10.096;2023-09-18T00:14:35;11.35;;;9.20;;
45548;SDS011;31270;48.328;10.096;2023-09-18T00:17:02;11.40;;;9.63;;
45548;SDS011;31270;48.328;10.096;2023-09-18T00:19:28;11.45;;;9.20;;
45548;SDS011;31270;48.328;10.096;2023-09-18T00:21:54;12.02;;;9.93;;
45548;SDS011;31270;48.328;10.096;2023-09-18T00:24:20;12.13;;;9.95;;
45548;SDS011;31270;48.328;10.096;2023-09-18T00:26:47;11.82;;;9.40;;
45548;SDS011;31270;48.328;10.096;2023-09-18T00:29:13;13.40;;;9.90;;
45548;SDS011;31270;48.328;10.096;2023-09-18T00:31:39;10.85;;;9.15;;
45548;SDS011;31270;48.328;10.096;2023-09-18T00:34:04;11.52;;;9.27;;
45548;SDS011;31270;48.328;10.096;2023-09-18T00:36:30;14.85;;;10.02;;
45548;SDS011;31270;48.328;10.096;2023-09-18T00:38:56;14.02;;;10.00;;
45548;SDS011;31270;48.328;10.096;2023-09-18T00:41:21;13.40;;;9.85;;
45548;SDS011;31270;48.328;10.096;2023-09-18T00:43:47;12.85;;;9.48;;
45548;SDS011;31270;48.328;10.096;2023-09-18T00:46:12;12.00;;;8.68;;
45548;SDS011;31270;48.328;10.096;2023-09-18T00:48:38;11.95;;;8.55;;
45548;SDS011;31270;48.328;10.096;2023-09-18T00:51:05;11.23;;;7.97;;
45548;SDS011;31270;48.328;10.096;2023-09-18T00:53:31;13.20;;;8.68;;
45548;SDS011;31270;48.328;10.096;2023-09-18T00:55:57;11.25;;;8.07;;
45548;SDS011;31270;48.328;10.096;2023-09-18T00:58:26;10.10;;;7.88;;
45548;SDS011;31270;48.328;10.096;2023-09-18T01:00:52;11.20;;;8.40;;
45548;SDS011;31270;48.328;10.096;2023-09-18T01:03:21;13.30;;;8.20;;
45548;SDS011;31270;48.328;10.096;2023-09-18T01:05:47;9.18;;;7.60;;
45548;SDS011;31270;48.328;10.096;2023-09-18T01:08:13;10.07;;;7.88;;
45548;SDS011;31270;48.328;10.096;2023-09-18T01:10:40;9.25;;;8.15;;
45548;SDS011;31270;48.328;10.096;2023-09-18T01:13:23;8.52;;;7.40;;
45548;SDS011;31270;48.328;10.096;2023-09-18T01:15:56;10.07;;;8.13;;
45548;SDS011;31270;48.328;10.096;2023-09-18T01:18:27;10.60;;;8.13;;
45548;SDS011;31270;48.328;10.096;2023-09-18T01:20:53;11.63;;;8.75;;
45548;SDS011;31270;48.328;10.096;2023-09-18T01:23:18;12.23;;;8.52;;
45548;SDS011;31270;48.328;10.096;2023-09-18T01:25:44;8.88;;;7.97;;
45548;SDS011;31270;48.328;10.096;2023-09-18T01:28:09;11.27;;;8.88;;
45548;SDS011;31270;48.328;10.096;2023-09-18T01:30:35;13.38;;;10.27;;
45548;SDS011;31270;48.328;10.096;2023-09-18T01:33:03;11.25;;;9.38;;
45548;SDS011;31270;48.328;10.096;2023-09-18T01:35:29;14.63;;;10.13;;
45548;SDS011;31270;48.328;10.096;2023-09-18T01:37:56;14.55;;;11.30;;
45548;SDS011;31270;48.328;10.096;2023-09-18T01:40:23;13.15;;;10.70;;
45548;SDS011;31270;48.328;10.096;2023-09-18T01:42:50;15.95;;;11.32;;
45548;SDS011;31270;48.328;10.096;2023-09-18T01:45:16;12.60;;;9.95;;
45548;SDS011;31270;48.328;10.096;2023-09-18T01:47:41;20.65;;;11.73;;
45548;SDS011;31270;48.328;10.096;2023-09-18T01:50:08;16.92;;;11.70;;
45548;SDS011;31270;48.328;10.096;2023-09-18T01:52:34;15.50;;;11.50;;
45548;SDS011;31270;48.328;10.096;2023-09-18T01:55:00;16.90;;;11.98;;
45548;SDS011;31270;48.328;10.096;2023-09-18T01:57:26;16.30;;;12.52;;
45548;SDS011;31270;48.328;10.096;2023-09-18T01:59:52;15.82;;;12.02;;
45548;SDS011;31270;48.328;10.096;2023-09-18T02:02:18;15.75;;;11.77;;
45548;SDS011;31270;48.328;10.096;2023-09-18T02:04:43;14.23;;;11.52;;
45548;SDS011;31270;48.328;10.096;2023-09-18T02:07:10;16.83;;;12.05;;
45548;SDS011;31270;48.328;10.096;2023-09-18T02:09:35;16.27;;;11.43;;
45548;SDS011;31270;48.328;10.096;2023-09-18T02:12:01;14.85;;;12.40;;
45548;SDS011;31270;48.328;10.096;2023-09-18T02:14:27;17.08;;;12.43;;
45548;SDS011;31270;48.328;10.096;2023-09-18T02:16:56;14.45;;;11.63;;
45548;SDS011;31270;48.328;10.096;2023-09-18T02:19:21;17.73;;;10.82;;
45548;SDS011;31270;48.328;10.096;2023-09-18T02:21:47;12.23;;;9.02;;
45548;SDS011;31270;48.328;10.096;2023-09-18T02:24:13;13.40;;;10.18;;
45548;SDS011;31270;48.328;10.096;2023-09-18T02:26:38;14.10;;;10.05;;
45548;SDS011;31270;48.328;10.096;2023-09-18T02:29:05;16.38;;;10.60;;
45548;SDS011;31270;48.328;10.096;2023-09-18T02:31:35;13.38;;;10.43;;
45548;SDS011;31270;48.328;10.096;2023-09-18T02:34:00;14.15;;;10.73;;
45548;SDS011;31270;48.328;10.096;2023-09-18T02:36:26;11.85;;;10.00;;
45548;SDS011;31270;48.328;10.096;2023-09-18T02:38:51;13.73;;;10.10;;
45548;SDS011;31270;48.328;10.096;2023-09-18T02:41:17;15.52;;;10.15;;
45548;SDS011;31270;48.328;10.096;2023-09-18T02:43:45;14.43;;;10.43;;
45548;SDS011;31270;48.328;10.096;2023-09-18T02:46:11;12.30;;;9.93;;
45548;SDS011;31270;48.328;10.096;2023-09-18T02:48:36;11.80;;;9.95;;
45548;SDS011;31270;48.328;10.096;2023-09-18T02:51:02;12.50;;;10.23;;
45548;SDS011;31270;48.328;10.096;2023-09-18T02:53:28;17.58;;;9.82;;
45548;SDS011;31270;48.328;10.096;2023-09-18T02:55:55;11.93;;;9.93;;
45548;SDS011;31270;48.328;10.096;2023-09-18T02:58:23;15.25;;;10.07;;
45548;SDS011;31270;48.328;10.096;2023-09-18T03:00:51;14.60;;;10.80;;
45548;SDS011;31270;48.328;10.096;2023-09-18T03:03:18;16.02;;;10.65;;
45548;SDS011;31270;48.328;10.096;2023-09-18T03:05:44;14.43;;;10.77;;
45548;SDS011;31270;48.328;10.096;2023-09-18T03:08:12;12.85;;;10.48;;
45548;SDS011;31270;48.328;10.096;2023-09-18T03:10:39;13.73;;;10.43;;
45548;SDS011;31270;48.328;10.096;2023-09-18T03:13:06;14.93;;;10.82;;
45548;SDS011;31270;48.328;10.096;2023-09-18T03:15:36;13.68;;;10.45;;
45548;SDS011;31270;48.328;10.096;2023-09-18T03:18:03;16.10;;;10.75;;
45548;SDS011;31270;48.328;10.096;2023-09-18T03:20:32;13.68;;;11.35;;
45548;SDS011;31270;48.328;10.096;2023-09-18T03:22:58;13.98;;;11.02;;
45548;SDS011;31270;48.328;10.096;2023-09-18T03:25:25;14.80;;;10.75;;
45548;SDS011;31270;48.328;10.096;2023-09-18T03:27:52;14.48;;;11.30;;
45548;SDS011;31270;48.328;10.096;2023-09-18T03:30:19;14.88;;;11.75;;
45548;SDS011;31270;48.328;10.096;2023-09-18T03:32:46;17.08;;;12.15;;
45548;SDS011;31270;48.328;10.096;2023-09-18T03:35:13;20.48;;;11.82;;
45548;SDS011;31270;48.328;10.096;2023-09-18T03:37:45;17.83;;;13.80;;
45548;SDS011;31270;48.328;10.096;2023-09-18T03:40:12;19.50;;;14.13;;
45548;SDS011;31270;48.328;10.096;2023-09-18T03:42:38;17.42;;;14.02;;
45548;SDS011;31270;48.328;10.096;2023-09-18T03:45:07;18.95;;;14.05;;
45548;SDS011;31270;48.328;10.096;2023-09-18T03:47:34;21.98;;;14.45;;
45548;SDS011;31270;48.328;10.096;2023-09-18T03:50:01;19.33;;;14.70;;
45548;SDS011;31270;48.328;10.096;2023-09-18T03:52:27;21.42;;;15.13;;
45548;SDS011;31270;48.328;10.096;2023-09-18T03:54:53;22.58;;;15.10;;
45548;SDS011;31270;48.328;10.096;2023-09-18T03:57:19;22.10;;;14.90;;
45548;SDS011;31270;48.328;10.096;2023-09-18T03:59:44;19.45;;;14.55;;
45548;SDS011;31270;48.328;10.096;2023-09-18T04:02:10;22.65;;;15.80;;
45548;SDS011;31270;48.328;10.096;2023-09-18T04:04:35;22.42;;;14.95;;
45548;SDS011;31270;48.328;10.096;2023-09-18T04:07:04;21.70;;;16.60;;
45548;SDS011;31270;48.328;10.096;2023-09-18T04:09:31;22.60;;;16.08;;
45548;SDS011;31270;48.328;10.096;2023-09-18T04:11:56;26.30;;;17.20;;
45548;SDS011;31270;48.328;10.096;2023-09-18T04:14:23;25.67;;;17.48;;
45548;SDS011;31270;48.328;10.096;2023-09-18T04:16:48;24.85;;;17.75;;
45548;SDS011;31270;48.328;10.096;2023-09-18T04:19:14;24.10;;;18.10;;
45548;SDS011;31270;48.328;10.096;2023-09-18T04:21:39;28.80;;;17.60;;
45548;SDS011;31270;48.328;10.096;2023-09-18T04:24:05;24.85;;;17.20;;
45548;SDS011;31270;48.328;10.096;2023-09-18T04:26:31;26.35;;;18.20;;
45548;SDS011;31270;48.328;10.096;2023-09-18T04:28:58;27.20;;;19.23;;
45548;SDS011;31270;48.328;10.096;2023-09-18T04:31:28;24.13;;;17.65;;
45548;SDS011;31270;48.328;10.096;2023-09-18T04:34:02;24.65;;;18.65;;
45548;SDS011;31270;48.328;10.096;2023-09-18T04:36:28;28.67;;;19.30;;
45548;SDS011;31270;48.328;10.096;2023-09-18T04:38:53;24.90;;;18.83;;
45548;SDS011;31270;48.328;10.096;2023-09-18T04:41:19;24.23;;;17.67;;
45548;SDS011;31270;48.328;10.096;2023-09-18T04:43:45;26.35;;;18.05;;
45548;SDS011;31270;48.328;10.096;2023-09-18T04:46:10;25.35;;;17.95;;
45548;SDS011;31270;48.328;10.096;2023-09-18T04:48:36;27.20;;;17.98;;
45548;SDS011;31270;48.328;10.096;2023-09-18T04:51:02;23.23;;;16.77;;
45548;SDS011;31270;48.328;10.096;2023-09-18T04:53:29;22.35;;;16.27;;
45548;SDS011;31270;48.328;10.096;2023-09-18T04:55:55;19.90;;;15.05;;
45548;SDS011;31270;48.328;10.096;2023-09-18T04:58:21;20.13;;;14.32;;
45548;SDS011;31270;48.328;10.096;2023-09-18T05:00:53;19.38;;;15.02;;
45548;SDS011;31270;48.328;10.096;2023-09-18T05:03:22;20.75;;;14.60;;
45548;SDS011;31270;48.328;10.096;2023-09-18T05:05:48;18.73;;;13.90;;
45548;SDS011;31270;48.328;10.096;2023-09-18T05:08:14;21.17;;;13.93;;
45548;SDS011;31270;48.328;10.096;2023-09-18T05:10:40;23.75;;;14.95;;
45548;SDS011;31270;48.328;10.096;2023-09-18T05:13:05;17.73;;;13.90;;
45548;SDS011;31270;48.328;10.096;2023-09-18T05:15:32;16.50;;;13.38;;
45548;SDS011;31270;48.328;10.096;2023-09-18T05:17:58;22.25;;;14.98;;
45548;SDS011;31270;48.328;10.096;2023-09-18T05:20:25;20.85;;;14.20;;
45548;SDS011;31270;48.328;10.096;2023-09-18T05:22:53;18.80;;;14.45;;
45548;SDS011;31270;48.328;10.096;2023-09-18T05:25:20;17.90;;;13.77;;
45548;SDS011;31270;48.328;10.096;2023-09-18T05:27:47;20.25;;;13.93;;
45548;SDS011;31270;48.328;10.096;2023-09-18T05:30:21;19.88;;;14.38;;
45548;SDS011;31270;48.328;10.096;2023-09-18T05:32:50;22.92;;;14.15;;
45548;SDS011;31270;48.328;10.096;2023-09-18T05:35:16;19.67;;;14.13;;
45548;SDS011;31270;48.328;10.096;2023-09-18T05:37:42;18.88;;;13.70;;
45548;SDS011;31270;48.328;10.096;2023-09-18T05:40:09;17.85;;;14.02;;
45548;SDS011;31270;48.328;10.096;2023-09-18T05:42:39;15.68;;;12.95;;
45548;SDS011;31270;48.328;10.096;2023-09-18T05:45:09;16.42;;;12.88;;
45548;SDS011;31270;48.328;10.096;2023-09-18T05:47:38;17.83;;;12.70;;
45548;SDS011;31270;48.328;10.096;2023-09-18T05:50:07;17.65;;;12.82;;
45548;SDS011;31270;48.328;10.096;2023-09-18T05:52:34;16.10;;;12.43;;
45548;SDS011;31270;48.328;10.096;2023-09-18T05:55:01;15.55;;;12.18;;
45548;SDS011;31270;48.328;10.096;2023-09-18T05:57:28;22.42;;;12.48;;
45548;SDS011;31270;48.328;10.096;2023-09-18T05:59:54;17.48;;;12.75;;
45548;SDS011;31270;48.328;10.096;2023-09-18T06:02:21;16.25;;;12.52;;
45548;SDS011;31270;48.328;10.096;2023-09-18T06:04:47;19.40;;;13.07;;
45548;SDS011;31270;48.328;10.096;2023-09-18T06:07:13;16.58;;;12.93;;
45548;SDS011;31270;48.328;10.096;2023-09-18T06:09:39;20.80;;;13.32;;
45548;SDS011;31270;48.328;10.096;2023-09-18T06:12:04;18.30;;;12.55;;
45548;SDS011;31270;48.328;10.096;2023-09-18T06:14:31;18.40;;;13.25;;
45548;SDS011;31270;48.328;10.096;2023-09-18T06:16:59;17.65;;;12.70;;
45548;SDS011;31270;48.328;10.096;2023-09-18T06:19:24;16.70;;;12.00;;
45548;SDS011;31270;48.328;10.096;2023-09-18T06:21:50;16.70;;;12.45;;
45548;SDS011;31270;48.328;10.096;2023-09-18T06:24:15;14.60;;;11.98;;
45548;SDS011;31270;48.328;10.096;2023-09-18T06:26:41;16.27;;;10.95;;
45548;SDS011;31270;48.328;10.096;2023-09-18T06:29:07;23.40;;;11.88;;
45548;SDS011;31270;48.328;10.096;2023-09-18T06:31:34;19.23;;;10.50;;
45548;SDS011;31270;48.328;10.096;2023-09-18T06:34:00;15.02;;;10.05;;
45548;SDS011;31270;48.328;10.096;2023-09-18T06:36:26;13.00;;;9.38;;
45548;SDS011;31270;48.328;10.096;2023-09-18T06:38:51;10.90;;;9.27;;
45548;SDS011;31270;48.328;10.096;2023-09-18T06:41:17;15.07;;;9.77;;
45548;SDS011;31270;48.328;10.096;2023-09-18T06:43:42;13.85;;;8.65;;
45548;SDS011;31270;48.328;10.096;2023-09-18T06:46:08;12.43;;;8.38;;
45548;SDS011;31270;48.328;10.096;2023-09-18T06:48:33;10.10;;;7.85;;
45548;SDS011;31270;48.328;10.096;2023-09-18T06:51:00;10.73;;;7.85;;
45548;SDS011;31270;48.328;10.096;2023-09-18T06:53:28;12.68;;;8.02;;
45548;SDS011;31270;48.328;10.096;2023-09-18T06:55:54;13.57;;;8.15;;
45548;SDS011;31270;48.328;10.096;2023-09-18T06:58:20;12.93;;;8.38;;
45548;SDS011;31270;48.328;10.096;2023-09-18T07:00:46;9.20;;;8.02;;
45548;SDS011;31270;48.328;10.096;2023-09-18T07:03:18;9.80;;;7.07;;
45548;SDS011;31270;48.328;10.096;2023-09-18T07:05:44;11.43;;;7.53;;
45548;SDS011;31270;48.328;10.096;2023-09-18T07:08:11;11.77;;;7.70;;
45548;SDS011;31270;48.328;10.096;2023-09-18T07:10:38;10.07;;;6.90;;
45548;SDS011;31270;48.328;10.096;2023-09-18T07:13:05;14.18;;;7.43;;
45548;SDS011;31270;48.328;10.096;2023-09-18T07:15:30;13.90;;;8.00;;
45548;SDS011;31270;48.328;10.096;2023-09-18T07:17:56;8.57;;;7.68;;
45548;SDS011;31270;48.328;10.096;2023-09-18T07:20:21;9.60;;;7.55;;
45548;SDS011;31270;48.328;10.096;2023-09-18T07:22:48;11.18;;;6.97;;
45548;SDS011;31270;48.328;10.096;2023-09-18T07:25:15;9.13;;;6.85;;
45548;SDS011;31270;48.328;10.096;2023-09-18T07:27:41;12.95;;;7.97;;
45548;SDS011;31270;48.328;10.096;2023-09-18T07:30:09;14.13;;;7.78;;
45548;SDS011;31270;48.328;10.096;2023-09-18T07:32:36;11.80;;;7.65;;
45548;SDS011;31270;48.328;10.096;2023-09-18T07:35:02;9.77;;;7.57;;
45548;SDS011;31270;48.328;10.096;2023-09-18T07:37:29;9.82;;;7.53;;
45548;SDS011;31270;48.328;10.096;2023-09-18T07:39:55;9.88;;;8.15;;
45548;SDS011;31270;48.328;10.096;2023-09-18T07:42:23;9.07;;;7.53;;
45548;SDS011;31270;48.328;10.096;2023-09-18T07:44:52;10.80;;;7.85;;
45548;SDS011;31270;48.328;10.096;2023-09-18T07:47:18;10.60;;;6.90;;
45548;SDS011;31270;48.328;10.096;2023-09-18T07:49:44;10.70;;;6.95;;
45548;SDS011;31270;48.328;10.096;2023-09-18T07:52:09;10.90;;;7.18;;
45548;SDS011;31270;48.328;10.096;2023-09-18T07:54:35;14.05;;;7.47;;
45548;SDS011;31270;48.328;10.096;2023-09-18T07:57:01;12.77;;;7.35;;
45548;SDS011;31270;48.328;10.096;2023-09-18T07:59:26;16.27;;;7.38;;
45548;SDS011;31270;48.328;10.096;2023-09-18T08:01:52;9.88;;;6.70;;
45548;SDS011;31270;48.328;10.096;2023-09-18T08:04:19;10.38;;;6.35;;
45548;SDS011;31270;48.328;10.096;2023-09-18T08:06:45;10.20;;;6.00;;
45548;SDS011;31270;48.328;10.096;2023-09-18T08:09:15;9.65;;;6.05;;
45548;SDS011;31270;48.328;10.096;2023-09-18T08:11:44;13.25;;;6.50;;
45548;SDS011;31270;48.328;10.096;2023-09-18T08:14:12;9.52;;;5.63;;
45548;SDS011;31270;48.328;10.096;2023-09-18T08:16:38;15.82;;;6.00;;
45548;SDS011;31270;48.328;10.096;2023-09-18T08:19:07;7.45;;;5.85;;
45548;SDS011;31270;48.328;10.096;2023-09-18T08:21:42;10.23;;;5.30;;
45548;SDS011;31270;48.328;10.096;2023-09-18T08:24:08;8.65;;;5.50;;
45548;SDS011;31270;48.328;10.096;2023-09-18T08:26:33;11.30;;;6.00;;
45548;SDS011;31270;48.328;10.096;2023-09-18T08:28:59;8.88;;;5.18;;
45548;SDS011;31270;48.328;10.096;2023-09-18T08:31:24;8.52;;;5.15;;
45548;SDS011;31270;48.328;10.096;2023-09-18T08:33:52;6.65;;;4.85;;
45548;SDS011;31270;48.328;10.096;2023-09-18T08:36:18;10.68;;;5.60;;
45548;SDS011;31270;48.328;10.096;2023-09-18T08:38:44;7.25;;;4.75;;
45548;SDS011;31270;48.328;10.096;2023-09-18T08:41:11;11.07;;;4.53;;
45548;SDS011;31270;48.328;10.096;2023-09-18T08:43:39;9.38;;;4.30;;
45548;SDS011;31270;48.328;10.096;2023-09-18T08:46:08;8.88;;;4.05;;
45548;SDS011;31270;48.328;10.096;2023-09-18T08:48:34;7.15;;;4.47;;
45548;SDS011;31270;48.328;10.096;2023-09-18T08:51:03;11.82;;;3.72;;
45548;SDS011;31270;48.328;10.096;2023-09-18T08:53:33;7.22;;;3.63;;
45548;SDS011;31270;48.328;10.096;2023-09-18T08:56:01;10.77;;;3.35;;
45548;SDS011;31270;48.328;10.096;2023-09-18T08:58:36;10.00;;;3.88;;
45548;SDS011;31270;48.328;10.096;2023-09-18T09:01:11;8.85;;;3.20;;
45548;SDS011;31270;48.328;10.096;2023-09-18T09:03:38;8.98;;;3.35;;
45548;SDS011;31270;48.328;10.096;2023-09-18T09:06:08;32.50;;;5.20;;
45548;SDS011;31270;48.328;10.096;2023-09-18T09:08:34;8.27;;;3.35;;
45548;SDS011;31270;48.328;10.096;2023-09-18T09:11:01;21.90;;;3.85;;
45548;SDS011;31270;48.328;10.096;2023-09-18T09:13:27;12.68;;;3.50;;
45548;SDS011;31270;48.328;10.096;2023-09-18T09:15:53;7.57;;;2.90;;
45548;SDS011;31270;48.328;10.096;2023-09-18T09:18:24;7.28;;;2.72;;
45548;SDS011;31270;48.328;10.096;2023-09-18T09:21:03;11.18;;;3.63;;
45548;SDS011;31270;48.328;10.096;2023-09-18T09:23:48;22.38;;;3.97;;
45548;SDS011;31270;48.328;10.096;2023-09-18T09:26:20;8.80;;;3.15;;
45548;SDS011;31270;48.328;10.096;2023-09-18T09:28:48;8.10;;;3.00;;
45548;SDS011;31270;48.328;10.096;2023-09-18T09:31:24;8.50;;;3.97;;
45548;SDS011;31270;48.328;10.096;2023-09-18T09:33:53;8.90;;;2.67;;
45548;SDS011;31270;48.328;10.096;2023-09-18T09:36:19;117.28;;;14.90;;
45548;SDS011;31270;48.328;10.096;2023-09-18T09:38:46;13.73;;;3.25;;
45548;SDS011;31270;48.328;10.096;2023-09-18T09:41:14;11.23;;;3.17;;
45548;SDS011;31270;48.328;10.096;2023-09-18T09:43:41;4.60;;;2.42;;
45548;SDS011;31270;48.328;10.096;2023-09-18T09:46:08;17.02;;;3.88;;
45548;SDS011;31270;48.328;10.096;2023-09-18T09:49:15;7.68;;;2.80;;
45548;SDS011;31270;48.328;10.096;2023-09-18T09:51:35;7.30;;;2.25;;
45548;SDS011;31270;48.328;10.096;2023-09-18T09:54:00;8.65;;;2.47;;
45548;SDS011;31270;48.328;10.096;2023-09-18T09:56:42;8.70;;;2.67;;
45548;SDS011;31270;48.328;10.096;2023-09-18T09:59:11;2.97;;;2.10;;
45548;SDS011;31270;48.328;10.096;2023-09-18T10:01:38;8.45;;;2.25;;
45548;SDS011;31270;48.328;10.096;2023-09-18T10:04:06;9.05;;;2.10;;
45548;SDS011;31270;48.328;10.096;2023-09-18T10:06:46;9.27;;;2.42;;
45548;SDS011;31270;48.328;10.096;2023-09-18T10:09:17;4.82;;;2.17;;
45548;SDS011;31270;48.328;10.096;2023-09-18T10:11:45;8.75;;;2.63;;
45548;SDS011;31270;48.328;10.096;2023-09-18T10:14:16;9.35;;;2.97;;
45548;SDS011;31270;48.328;10.096;2023-09-18T10:16:51;7.38;;;2.33;;
45548;SDS011;31270;48.328;10.096;2023-09-18T10:24:38;6.22;;;2.55;;
45548;SDS011;31270;48.328;10.096;2023-09-18T10:27:08;5.95;;;2.47;;
45548;SDS011;31270;48.328;10.096;2023-09-18T10:29:38;8.77;;;2.75;;
45548;SDS011;31270;48.328;10.096;2023-09-18T10:32:06;15.27;;;3.30;;
45548;SDS011;31270;48.328;10.096;2023-09-18T10:34:33;5.90;;;2.33;;
45548;SDS011;31270;48.328;10.096;2023-09-18T10:37:00;13.00;;;2.28;;
45548;SDS011;31270;48.328;10.096;2023-09-18T10:39:38;6.05;;;2.10;;
45548;SDS011;31270;48.328;10.096;2023-09-18T10:42:06;4.07;;;1.88;;
45548;SDS011;31270;48.328;10.096;2023-09-18T10:44:33;8.38;;;2.60;;
45548;SDS011;31270;48.328;10.096;2023-09-18T10:47:00;7.55;;;2.20;;
45548;SDS011;31270;48.328;10.096;2023-09-18T10:49:30;8.07;;;2.17;;
45548;SDS011;31270;48.328;10.096;2023-09-18T10:51:57;7.47;;;2.05;;
45548;SDS011;31270;48.328;10.096;2023-09-18T10:54:24;4.03;;;1.88;;
45548;SDS011;31270;48.328;10.096;2023-09-18T10:56:51;5.57;;;2.20;;
45548;SDS011;31270;48.328;10.096;2023-09-18T10:59:17;7.28;;;2.08;;
45548;SDS011;31270;48.328;10.096;2023-09-18T11:01:44;6.72;;;2.30;;
45548;SDS011;31270;48.328;10.096;2023-09-18T11:04:10;3.80;;;1.90;;
45548;SDS011;31270;48.328;10.096;2023-09-18T11:09:20;6.93;;;2.15;;
45548;SDS011;31270;48.328;10.096;2023-09-18T11:22:46;3.38;;;1.63;;
45548;SDS011;31270;48.328;10.096;2023-09-18T11:28:04;4.93;;;2.00;;
45548;SDS011;31270;48.328;10.096;2023-09-18T11:30:32;4.93;;;1.92;;
45548;SDS011;31270;48.328;10.096;2023-09-18T11:33:02;7.72;;;2.50;;
45548;SDS011;31270;48.328;10.096;2023-09-18T11:35:30;5.93;;;2.00;;
45548;SDS011;31270;48.328;10.096;2023-09-18T11:38:03;5.55;;;2.28;;
45548;SDS011;31270;48.328;10.096;2023-09-18T11:40:31;5.18;;;2.00;;
45548;SDS011;31270;48.328;10.096;2023-09-18T11:45:48;2.90;;;1.95;;
45548;SDS011;31270;48.328;10.096;2023-09-18T11:48:16;5.78;;;1.92;;
45548;SDS011;31270;48.328;10.096;2023-09-18T11:50:44;8.65;;;2.17;;
45548;SDS011;31270;48.328;10.096;2023-09-18T11:53:11;3.10;;;2.00;;
45548;SDS011;31270;48.328;10.096;2023-09-18T11:55:38;4.18;;;1.80;;
45548;SDS011;31270;48.328;10.096;2023-09-18T11:58:05;4.43;;;1.45;;
45548;SDS011;31270;48.328;10.096;2023-09-18T12:00:31;7.03;;;2.00;;
45548;SDS011;31270;48.328;10.096;2023-09-18T12:02:57;2.90;;;1.60;;
45548;SDS011;31270;48.328;10.096;2023-09-18T12:05:38;4.10;;;1.60;;
45548;SDS011;31270;48.328;10.096;2023-09-18T12:08:03;1.83;;;1.40;;
45548;SDS011;31270;48.328;10.096;2023-09-18T12:10:29;2.85;;;1.48;;
45548;SDS011;31270;48.328;10.096;2023-09-18T12:12:55;3.92;;;1.20;;
45548;SDS011;31270;48.328;10.096;2023-09-18T12:15:20;3.08;;;1.20;;
45548;SDS011;31270;48.328;10.096;2023-09-18T12:17:46;4.88;;;1.52;;
45548;SDS011;31270;48.328;10.096;2023-09-18T12:20:15;1.88;;;1.30;;
45548;SDS011;31270;48.328;10.096;2023-09-18T12:22:47;5.10;;;1.30;;
45548;SDS011;31270;48.328;10.096;2023-09-18T12:25:14;4.53;;;1.13;;
45548;SDS011;31270;48.328;10.096;2023-09-18T12:27:40;3.13;;;1.40;;
45548;SDS011;31270;48.328;10.096;2023-09-18T12:30:07;4.88;;;1.63;;
45548;SDS011;31270;48.328;10.096;2023-09-18T12:32:35;2.50;;;1.50;;
45548;SDS011;31270;48.328;10.096;2023-09-18T12:35:02;2.80;;;1.55;;
45548;SDS011;31270;48.328;10.096;2023-09-18T12:37:32;3.95;;;1.40;;
45548;SDS011;31270;48.328;10.096;2023-09-18T12:39:59;2.42;;;1.60;;
45548;SDS011;31270;48.328;10.096;2023-09-18T12:42:25;1.88;;;1.10;;
45548;SDS011;31270;48.328;10.096;2023-09-18T12:44:51;2.17;;;1.63;;
45548;SDS011;31270;48.328;10.096;2023-09-18T12:47:17;2.50;;;1.60;;
45548;SDS011;31270;48.328;10.096;2023-09-18T12:49:43;2.80;;;1.70;;
45548;SDS011;31270;48.328;10.096;2023-09-18T12:52:10;4.22;;;1.60;;
45548;SDS011;31270;48.328;10.096;2023-09-18T12:57:04;3.47;;;1.70;;
45548;SDS011;31270;48.328;10.096;2023-09-18T12:59:35;4.82;;;1.88;;
45548;SDS011;31270;48.328;10.096;2023-09-18T13:02:02;4.57;;;1.90;;
45548;SDS011;31270;48.328;10.096;2023-09-18T13:04:35;4.88;;;1.60;;
45548;SDS011;31270;48.328;10.096;2023-09-18T13:07:05;4.65;;;1.88;;
45548;SDS011;31270;48.328;10.096;2023-09-18T13:09:32;2.90;;;1.60;;
45548;SDS011;31270;48.328;10.096;2023-09-18T13:11:58;7.97;;;2.17;;
45548;SDS011;31270;48.328;10.096;2023-09-18T13:17:22;8.80;;;2.17;;
45548;SDS011;31270;48.328;10.096;2023-09-18T13:19:49;4.07;;;2.03;;
45548;SDS011;31270;48.328;10.096;2023-09-18T13:22:24;6.03;;;1.50;;
45548;SDS011;31270;48.328;10.096;2023-09-18T13:24:56;2.78;;;2.30;;
45548;SDS011;31270;48.328;10.096;2023-09-18T13:27:22;2.92;;;1.88;;
45548;SDS011;31270;48.328;10.096;2023-09-18T13:29:48;3.10;;;2.05;;
45548;SDS011;31270;48.328;10.096;2023-09-18T13:32:14;5.40;;;1.95;;
45548;SDS011;31270;48.328;10.096;2023-09-18T13:34:40;6.70;;;1.58;;
45548;SDS011;31270;48.328;10.096;2023-09-18T13:37:06;3.00;;;2.00;;
45548;SDS011;31270;48.328;10.096;2023-09-18T13:39:31;3.35;;;1.58;;
45548;SDS011;31270;48.328;10.096;2023-09-18T13:41:57;3.10;;;1.98;;
45548;SDS011;31270;48.328;10.096;2023-09-18T13:44:22;3.30;;;1.98;;
45548;SDS011;31270;48.328;10.096;2023-09-18T13:46:48;3.33;;;1.48;;
45548;SDS011;31270;48.328;10.096;2023-09-18T13:49:14;4.00;;;2.05;;
45548;SDS011;31270;48.328;10.096;2023-09-18T13:51:39;4.55;;;1.70;;
45548;SDS011;31270;48.328;10.096;2023-09-18T13:54:05;5.63;;;1.95;;
45548;SDS011;31270;48.328;10.096;2023-09-18T13:56:32;4.45;;;1.98;;
45548;SDS011;31270;48.328;10.096;2023-09-18T13:58:58;2.83;;;1.77;;
45548;SDS011;31270;48.328;10.096;2023-09-18T14:01:23;3.40;;;2.00;;
45548;SDS011;31270;48.328;10.096;2023-09-18T14:03:51;5.10;;;2.38;;
45548;SDS011;31270;48.328;10.096;2023-09-18T14:06:16;4.75;;;2.20;;
45548;SDS011;31270;48.328;10.096;2023-09-18T14:08:42;3.95;;;2.05;;
45548;SDS011;31270;48.328;10.096;2023-09-18T14:11:07;4.20;;;2.40;;
45548;SDS011;31270;48.328;10.096;2023-09-18T14:13:33;3.72;;;2.33;;
45548;SDS011;31270;48.328;10.096;2023-09-18T14:15:59;3.72;;;2.30;;
45548;SDS011;31270;48.328;10.096;2023-09-18T14:18:28;3.20;;;2.05;;
45548;SDS011;31270;48.328;10.096;2023-09-18T14:20:54;3.63;;;2.00;;
45548;SDS011;31270;48.328;10.096;2023-09-18T14:23:20;3.38;;;2.05;;
45548;SDS011;31270;48.328;10.096;2023-09-18T14:25:45;6.88;;;2.30;;
45548;SDS011;31270;48.328;10.096;2023-09-18T14:28:11;4.90;;;2.05;;
45548;SDS011;31270;48.328;10.096;2023-09-18T14:30:37;3.40;;;2.20;;
45548;SDS011;31270;48.328;10.096;2023-09-18T14:33:03;3.10;;;2.20;;
45548;SDS011;31270;48.328;10.096;2023-09-18T14:35:28;2.28;;;2.08;;
45548;SDS011;31270;48.328;10.096;2023-09-18T14:37:54;3.08;;;2.08;;
45548;SDS011;31270;48.328;10.096;2023-09-18T14:40:20;5.32;;;2.05;;
45548;SDS011;31270;48.328;10.096;2023-09-18T14:42:46;2.85;;;2.00;;
45548;SDS011;31270;48.328;10.096;2023-09-18T14:45:12;2.13;;;1.88;;
45548;SDS011;31270;48.328;10.096;2023-09-18T14:47:38;4.25;;;1.95;;
45548;SDS011;31270;48.328;10.096;2023-09-18T14:50:04;5.00;;;2.20;;
45548;SDS011;31270;48.328;10.096;2023-09-18T14:52:37;2.33;;;1.77;;
45548;SDS011;31270;48.328;10.096;2023-09-18T14:55:02;5.00;;;2.38;;